Time;durP1;ratioP1;P1;durP2;ratioP2;P2;SDS_P1;SDS_P2;PMS_P1;PMS_P2;Temp;Humidity;BMP_temperature;BMP_pressure;BME280_temperature;BME280_humidity;BME280_pressure;Samples;Min_cycle;Max_cycle;Signal;HPM_P1;HPM_P2
2022/07/12 00:00:24;;;;;;;1.6;3.3;;;;;;;11.5;100;98860;;;;
2022/07/12 00:10:24;;;;;;;3;5.1;;;;;;;11.6;100;98860;;;;
2022/07/12 00:21:24;;;;;;;3;5.1;;;;;;;11.7;100;98860;;;;
2022/07/12 00:32:25;;;;;;;3;5.1;;;;;;;11.9;100;98870;;;;
2022/07/12 00:42:24;;;;;;;3.7;6.7;;;;;;;12;100;98880;;;;
2022/07/12 00:52:24;;;;;;;3.7;6.7;;;;;;;12.2;100;98870;;;;
2022/07/12 01:02:24;;;;;;;3.7;6.7;;;;;;;12.2;100;98880;;;;
2022/07/12 01:13:24;;;;;;;3.5;6;;;;;;;12.2;100;98880;;;;
2022/07/12 01:24:25;;;;;;;3.5;6;;;;;;;12.2;100;98890;;;;
2022/07/12 01:35:24;;;;;;;3.5;6;;;;;;;12.3;100;98870;;;;
2022/07/12 01:46:24;;;;;;;4.2;9.1;;;;;;;12.3;100;98860;;;;
2022/07/12 01:56:24;;;;;;;4.2;9.1;;;;;;;12.3;100;98860;;;;
2022/07/12 02:07:24;;;;;;;3.7;6.8;;;;;;;12.2;100;98860;;;;
2022/07/12 02:17:24;;;;;;;3.7;6.8;;;;;;;12.3;100;98860;;;;
2022/07/12 02:28:24;;;;;;;3.7;6.8;;;;;;;12.2;100;98860;;;;
2022/07/12 02:38:24;;;;;;;4.2;7.4;;;;;;;12.2;100;98870;;;;
2022/07/12 02:49:24;;;;;;;4.2;7.4;;;;;;;12.2;100;98870;;;;
2022/07/12 02:59:24;;;;;;;4.2;7.4;;;;;;;12.2;100;98870;;;;
2022/07/12 03:09:24;;;;;;;4.6;9.7;;;;;;;12.2;100;98870;;;;
2022/07/12 03:20:24;;;;;;;4.6;9.7;;;;;;;12.2;100;98890;;;;
2022/07/12 03:31:24;;;;;;;4.6;9.7;;;;;;;12.1;100;98890;;;;
2022/07/12 03:42:24;;;;;;;4.7;8.7;;;;;;;12.2;100;98890;;;;
2022/07/12 03:52:24;;;;;;;4.7;8.7;;;;;;;12.3;100;98890;;;;
2022/07/12 04:03:24;;;;;;;4.7;8.7;;;;;;;12.4;100;98880;;;;
2022/07/12 04:13:24;;;;;;;4.6;8.4;;;;;;;12.4;100;98880;;;;
2022/07/12 04:23:24;;;;;;;4.6;8.4;;;;;;;12.5;100;98890;;;;
2022/07/12 04:34:24;;;;;;;4.6;8.4;;;;;;;12.6;100;98890;;;;
2022/07/12 04:44:24;;;;;;;4.4;8.3;;;;;;;13.1;100;98890;;;;
2022/07/12 04:55:24;;;;;;;4.4;8.3;;;;;;;13;100;98890;;;;
2022/07/12 05:06:24;;;;;;;4.7;8.8;;;;;;;13.3;100;98890;;;;
2022/07/12 05:16:24;;;;;;;4.7;8.8;;;;;;;13.6;100;98880;;;;
2022/07/12 05:27:24;;;;;;;4.7;8.8;;;;;;;13.9;100;98880;;;;
2022/07/12 05:37:25;;;;;;;3.9;11.4;;;;;;;13.6;100;98870;;;;
2022/07/12 05:48:24;;;;;;;3.9;11.4;;;;;;;14.1;100;98880;;;;
2022/07/12 05:59:24;;;;;;;3.9;11.4;;;;;;;14.2;100;98860;;;;
2022/07/12 06:10:24;;;;;;;3.7;7.1;;;;;;;14.5;100;98870;;;;
2022/07/12 06:20:24;;;;;;;3.7;7.1;;;;;;;15.1;100;98880;;;;
2022/07/12 06:30:24;;;;;;;3.7;7.1;;;;;;;15.5;100;98880;;;;
2022/07/12 06:40:24;;;;;;;2.7;6.3;;;;;;;15.7;100;98870;;;;
2022/07/12 06:51:24;;;;;;;2.7;6.3;;;;;;;16.2;100;98870;;;;
2022/07/12 07:01:24;;;;;;;2.7;6.3;;;;;;;15.9;100;98880;;;;
2022/07/12 07:16:58;;;;;;;2.4;5.3;;;;;;;16.5;100;98890;;;;
2022/07/12 07:26:56;;;;;;;2.4;5.3;;;;;;;16.8;100;98900;;;;
2022/07/12 07:36:56;;;;;;;2.2;5.2;;;;;;;16.8;100;98900;;;;
2022/07/12 07:46:56;;;;;;;2.2;5.2;;;;;;;17.2;100;98910;;;;
2022/07/12 07:57:59;;;;;;;2.2;5.2;;;;;;;17;100;98910;;;;
2022/07/12 08:07:56;;;;;;;2.5;4.7;;;;;;;16.8;100;98900;;;;
2022/07/12 08:18:56;;;;;;;2.5;4.7;;;;;;;17.5;100;98910;;;;
2022/07/12 08:28:56;;;;;;;2.5;4.7;;;;;;;17.8;100;98920;;;;
2022/07/12 08:39:56;;;;;;;1.9;5.1;;;;;;;18.3;100;98910;;;;
2022/07/12 08:49:56;;;;;;;1.9;5.1;;;;;;;18.8;100;98890;;;;
2022/07/12 09:00:56;;;;;;;1.9;5.1;;;;;;;19;100;98880;;;;
2022/07/12 09:10:56;;;;;;;4;15.5;;;;;;;17.7;100;98900;;;;
2022/07/12 09:21:56;;;;;;;4;15.5;;;;;;;18;100;98900;;;;
2022/07/12 09:43:56;;;;;;;2.3;6.1;;;;;;;15.6;100;98960;;;;
2022/07/12 09:53:58;;;;;;;2.3;6.1;;;;;;;15.2;100;98930;;;;
2022/07/12 10:04:56;;;;;;;2.3;6.1;;;;;;;15.7;100;98920;;;;
2022/07/12 10:14:56;;;;;;;1.9;4.8;;;;;;;16.3;100;98910;;;;
2022/07/12 10:24:56;;;;;;;1.9;4.8;;;;;;;17;100;98900;;;;
2022/07/12 10:35:56;;;;;;;2.1;4.9;;;;;;;17.3;100;98890;;;;
2022/07/12 10:46:56;;;;;;;2.1;4.9;;;;;;;18.6;100;98890;;;;
2022/07/12 10:56:57;;;;;;;2.1;4.9;;;;;;;18.8;100;98880;;;;
2022/07/12 11:07:56;;;;;;;1.7;4.3;;;;;;;19.8;100;98880;;;;
2022/07/12 11:18:56;;;;;;;1.7;4.3;;;;;;;19.4;100;98890;;;;
2022/07/12 11:29:57;;;;;;;1.7;4.3;;;;;;;19.4;100;98870;;;;
2022/07/12 11:39:57;;;;;;;1.1;3.3;;;;;;;19.4;100;98860;;;;
2022/07/12 11:50:56;;;;;;;1.1;3.3;;;;;;;19.7;100;98870;;;;
2022/07/12 12:00:56;;;;;;;1.1;3.3;;;;;;;19.4;100;98870;;;;
2022/07/12 12:11:56;;;;;;;0.6;2;;;;;;;19.7;100;98870;;;;
2022/07/12 12:22:56;;;;;;;0.6;2;;;;;;;19.8;100;98860;;;;
2022/07/12 12:32:56;;;;;;;0.6;2;;;;;;;20.9;100;98860;;;;
2022/07/12 12:43:57;;;;;;;1;3.9;;;;;;;20.9;100;98840;;;;
2022/07/12 12:53:57;;;;;;;1;3.9;;;;;;;21.3;100;98850;;;;
2022/07/12 13:04:56;;;;;;;1;3.9;;;;;;;20.9;100;98850;;;;
2022/07/12 13:14:56;;;;;;;1.2;3;;;;;;;20;100;98870;;;;
2022/07/12 13:25:56;;;;;;;1.2;3;;;;;;;17.5;100;98880;;;;
2022/07/12 13:35:56;;;;;;;1;3.8;;;;;;;17.8;100;98860;;;;
2022/07/12 13:46:56;;;;;;;1;3.8;;;;;;;18.3;100;98870;;;;
2022/07/12 13:56:56;;;;;;;1;3.8;;;;;;;18.7;100;98860;;;;
2022/07/12 14:07:56;;;;;;;0.9;2.4;;;;;;;18.9;100;98860;;;;
2022/07/12 14:17:56;;;;;;;0.9;2.4;;;;;;;19.8;100;98870;;;;
2022/07/12 14:28:56;;;;;;;0.9;2.4;;;;;;;20.3;100;98860;;;;
2022/07/12 14:38:56;;;;;;;0.6;1.8;;;;;;;19.6;100;98850;;;;
2022/07/12 14:48:56;;;;;;;0.6;1.8;;;;;;;20.5;100;98830;;;;
2022/07/12 14:59:56;;;;;;;0.6;1.8;;;;;;;21.5;100;98830;;;;
2022/07/12 15:09:57;;;;;;;0.7;2.3;;;;;;;21.4;100;98830;;;;
2022/07/12 15:19:56;;;;;;;0.7;2.3;;;;;;;20.8;100;98820;;;;
2022/07/12 15:30:56;;;;;;;0.7;2.3;;;;;;;19.8;100;98810;;;;
2022/07/12 15:41:56;;;;;;;1.1;3.4;;;;;;;19.7;100;98800;;;;
2022/07/12 16:01:56;;;;;;;1.1;3.4;;;;;;;18.7;100;98790;;;;
2022/07/12 16:11:56;;;;;;;1.1;3;;;;;;;18;100;98780;;;;
2022/07/12 16:22:56;;;;;;;1.1;3;;;;;;;17.9;100;98780;;;;
2022/07/12 16:33:56;;;;;;;1.1;3;;;;;;;18.1;100;98760;;;;
2022/07/12 16:44:56;;;;;;;1.2;3.4;;;;;;;22.5;100;98790;;;;
2022/07/12 16:54:56;;;;;;;1.2;3.4;;;;;;;22.1;100;98790;;;;
2022/07/12 17:05:57;;;;;;;1.6;3.4;;;;;;;22.1;100;98770;;;;
2022/07/12 17:16:56;;;;;;;1.6;3.4;;;;;;;21.3;100;98760;;;;
2022/07/12 17:26:56;;;;;;;1.6;3.4;;;;;;;20.1;100;98740;;;;
2022/07/12 17:37:56;;;;;;;1.3;4.1;;;;;;;19.5;100;98740;;;;
2022/07/12 17:47:56;;;;;;;1.3;4.1;;;;;;;18.9;100;98730;;;;
2022/07/12 17:59:00;;;;;;;1.3;4.1;;;;;;;18.5;100;98720;;;;
2022/07/12 18:08:56;;;;;;;1.5;3.2;;;;;;;17.9;100;98710;;;;
2022/07/12 18:18:56;;;;;;;1.5;3.2;;;;;;;17.6;100;98710;;;;
2022/07/12 18:29:56;;;;;;;1.5;3.2;;;;;;;17.5;100;98700;;;;
2022/07/12 18:40:56;;;;;;;1.8;5.6;;;;;;;17.2;100;98710;;;;
2022/07/12 18:50:57;;;;;;;1.8;5.6;;;;;;;17.1;100;98700;;;;
2022/07/12 19:00:57;;;;;;;1.8;5.6;;;;;;;17;100;98720;;;;
2022/07/12 19:10:56;;;;;;;2.1;4.6;;;;;;;16.9;100;98720;;;;
2022/07/12 19:21:56;;;;;;;2.1;4.6;;;;;;;16.9;100;98710;;;;
2022/07/12 19:31:56;;;;;;;2.1;4.6;;;;;;;16.8;100;98720;;;;
2022/07/12 19:42:56;;;;;;;2.2;4.1;;;;;;;16.8;100;98710;;;;
2022/07/12 19:52:58;;;;;;;2.2;4.1;;;;;;;16.8;100;98700;;;;
2022/07/12 20:03:58;;;;;;;2.2;4.1;;;;;;;17;100;98690;;;;
2022/07/12 20:13:56;;;;;;;2.3;4.5;;;;;;;17.1;100;98700;;;;
2022/07/12 20:24:57;;;;;;;2.3;4.5;;;;;;;17.2;100;98710;;;;
2022/07/12 20:34:56;;;;;;;2.3;4.5;;;;;;;17.4;100;98730;;;;
2022/07/12 20:44:59;;;;;;;2.5;5.4;;;;;;;17.4;100;98740;;;;
2022/07/12 20:55:56;;;;;;;2.5;5.4;;;;;;;17.4;100;98740;;;;
2022/07/12 21:05:56;;;;;;;2.1;5.3;;;;;;;17.4;100;98750;;;;
2022/07/12 21:15:57;;;;;;;2.1;5.3;;;;;;;17.3;100;98760;;;;
2022/07/12 21:26:56;;;;;;;2.1;5.3;;;;;;;17.2;100;98760;;;;
2022/07/12 21:36:56;;;;;;;2.3;3.9;;;;;;;17.1;100;98760;;;;
2022/07/12 21:47:57;;;;;;;2.3;3.9;;;;;;;17;100;98750;;;;
2022/07/12 21:57:56;;;;;;;2.3;3.9;;;;;;;17;100;98760;;;;
2022/07/12 22:07:57;;;;;;;2.5;7.5;;;;;;;16.9;100;98770;;;;
2022/07/12 22:18:57;;;;;;;2.5;7.5;;;;;;;16.8;100;98770;;;;
2022/07/12 22:28:57;;;;;;;2.5;7.5;;;;;;;16.5;100;98780;;;;
2022/07/12 22:39:57;;;;;;;2.5;5.3;;;;;;;16.3;100;98770;;;;
2022/07/12 22:52:00;;;;;;;2.5;5.3;;;;;;;16.1;100;98760;;;;
2022/07/12 23:00:56;;;;;;;2.5;5.3;;;;;;;16;100;98760;;;;
2022/07/12 23:10:57;;;;;;;2.3;4.5;;;;;;;16;100;98750;;;;
2022/07/12 23:21:57;;;;;;;2.3;4.5;;;;;;;15.9;100;98750;;;;
2022/07/12 23:31:57;;;;;;;2.3;4.5;;;;;;;15.9;100;98740;;;;
2022/07/12 23:42:57;;;;;;;2.2;5.1;;;;;;;15.8;100;98740;;;;
2022/07/12 23:52:57;;;;;;;2.2;5.1;;;;;;;15.8;100;98740;;;;
